Time;durP1;ratioP1;P1;durP2;ratioP2;P2;SDS_P1;SDS_P2;PMS_P1;PMS_P2;Temp;Humidity;BMP_temperature;BMP_pressure;BME280_temperature;BME280_humidity;BME280_pressure;Samples;Min_cycle;Max_cycle;Signal;HPM_P1;HPM_P2
2023/03/08 00:00:09;;;;;;;0.40;0.40;;;;;;;4.30;87.06;96240.25;5004302;28;20046;-57
2023/03/08 00:02:35;;;;;;;0.50;0.50;;;;;;;4.26;88.35;96233.88;5005674;28;20452;-58
2023/03/08 00:05:03;;;;;;;0.40;0.40;;;;;;;3.85;87.46;96163.06;5005916;28;20042;-57
2023/03/08 00:07:30;;;;;;;0.45;0.45;;;;;;;4.19;87.55;96228.19;5005876;28;20064;-57
2023/03/08 00:09:57;;;;;;;0.40;0.40;;;;;;;4.31;86.67;96247.34;5005831;28;20077;-58
2023/03/08 00:12:24;;;;;;;0.40;0.40;;;;;;;2.94;87.56;96045.44;5005639;28;20469;-58
2023/03/08 00:14:50;;;;;;;0.40;0.40;;;;;;;3.74;87.12;96166.63;5005623;28;20104;-58
2023/03/08 00:17:17;;;;;;;0.40;0.40;;;;;;;4.13;87.64;96240.56;5005636;28;20054;-57
2023/03/08 00:19:44;;;;;;;0.40;0.40;;;;;;;4.18;87.60;96243.06;5005855;28;20053;-59
2023/03/08 00:22:11;;;;;;;0.40;0.40;;;;;;;4.12;86.90;96235.41;5020136;28;20136;-58
2023/03/08 00:24:37;;;;;;;0.50;0.50;;;;;;;3.50;87.56;96140.13;5005579;28;20196;-58
2023/03/08 00:27:04;;;;;;;0.40;0.40;;;;;;;4.04;88.22;96333.06;5020226;28;20104;-58
2023/03/08 00:29:31;;;;;;;0.40;0.40;;;;;;;4.09;88.38;96227.91;5005471;28;20139;-60
2023/03/08 00:31:57;;;;;;;0.40;0.40;;;;;;;4.17;88.20;96230.47;5005428;28;20045;-57
2023/03/08 00:34:24;;;;;;;0.40;0.40;;;;;;;4.16;86.97;96228.88;5005090;28;20144;-57
2023/03/08 00:36:50;;;;;;;0.40;0.40;;;;;;;4.13;87.34;96251.50;5005083;28;20054;-58
2023/03/08 00:39:17;;;;;;;0.40;0.40;;;;;;;3.75;88.17;96185.44;5019730;28;20673;-58
2023/03/08 00:41:44;;;;;;;0.40;0.40;;;;;;;4.04;88.33;96214.44;5005561;28;20050;-57
2023/03/08 00:44:10;;;;;;;0.40;0.40;;;;;;;3.76;88.26;96180.78;5005012;28;20082;-57
2023/03/08 00:46:37;;;;;;;0.40;0.40;;;;;;;4.09;88.38;96223.22;5005647;28;20057;-58
2023/03/08 00:49:04;;;;;;;0.40;0.40;;;;;;;3.94;89.27;96226.69;5005072;28;20046;-60
2023/03/08 00:51:32;;;;;;;0.40;0.40;;;;;;;3.94;89.93;96212.19;5005381;28;20058;-58
2023/03/08 00:53:59;;;;;;;0.40;0.40;;;;;;;3.77;91.28;96221.50;5005026;28;20593;-58
2023/03/08 00:56:26;;;;;;;0.40;0.40;;;;;;;3.87;91.61;96221.00;5019465;28;20062;-58
2023/03/08 00:58:53;;;;;;;0.40;0.40;;;;;;;3.82;91.81;96223.19;5004630;28;20053;-58
2023/03/08 01:01:19;;;;;;;0.40;0.40;;;;;;;3.87;90.43;96220.22;5004773;28;20089;-59
2023/03/08 01:03:46;;;;;;;0.40;0.40;;;;;;;3.33;90.82;96156.03;5003933;28;20136;-58
2023/03/08 01:06:14;;;;;;;0.40;0.40;;;;;;;3.78;91.47;96216.84;5004057;28;20563;-58
2023/03/08 01:08:42;;;;;;;0.40;0.40;;;;;;;3.81;91.40;96219.66;5003676;28;20413;-58
2023/03/08 01:11:18;;;;;;;0.40;0.40;;;;;;;3.84;91.05;96216.22;5004057;28;20046;-58
2023/03/08 01:13:45;;;;;;;0.40;0.40;;;;;;;3.54;90.20;96167.59;5003771;28;20505;-58
2023/03/08 01:16:18;;;;;;;0.40;0.40;;;;;;;3.88;89.24;96222.59;4983768;28;20165;-58
2023/03/08 01:18:44;;;;;;;0.40;0.40;;;;;;;3.40;88.63;96126.91;4984691;28;20050;-57
2023/03/08 01:21:11;;;;;;;0.40;0.40;;;;;;;3.63;88.55;96204.66;4985565;28;20654;-57
2023/03/08 01:23:38;;;;;;;0.40;0.40;;;;;;;3.82;88.41;96209.50;4985078;28;20104;-57
2023/03/08 01:26:12;;;;;;;0.40;0.40;;;;;;;3.70;88.51;96204.84;4985239;28;20091;-58
2023/03/08 01:28:39;;;;;;;0.38;0.38;;;;;;;3.80;88.30;96215.31;4984528;28;20046;-57
2023/03/08 01:31:32;;;;;;;0.40;0.40;;;;;;;3.83;88.48;96220.09;4984706;28;20520;-58
2023/03/08 01:33:58;;;;;;;0.40;0.40;;;;;;;2.88;88.66;96101.50;4985292;28;20438;-58
2023/03/08 01:36:26;;;;;;;0.40;0.40;;;;;;;3.65;89.06;96221.50;4984420;28;20062;-57
2023/03/08 01:38:53;;;;;;;0.40;0.40;;;;;;;3.33;91.09;96200.63;4984525;28;20429;-58
2023/03/08 01:41:29;;;;;;;0.40;0.40;;;;;;;3.33;92.43;96211.56;4983615;28;20057;-59
2023/03/08 01:43:56;;;;;;;0.40;0.40;;;;;;;3.22;92.80;96215.09;4984742;28;20283;-58
2023/03/08 01:46:26;;;;;;;0.32;0.32;;;;;;;3.33;92.17;96214.28;4989136;28;20069;-58
2023/03/08 01:49:33;;;;;;;0.35;0.35;;;;;;;3.38;91.47;96203.13;5003544;28;20100;-58
2023/03/08 01:52:07;;;;;;;0.40;0.40;;;;;;;3.45;91.15;96203.31;4986358;28;20050;-58
2023/03/08 01:54:40;;;;;;;0.40;0.40;;;;;;;3.27;93.01;96202.00;5003525;28;20253;-57
2023/03/08 01:57:13;;;;;;;0.40;0.40;;;;;;;3.35;94.03;96209.25;4989230;28;20050;-58
2023/03/08 01:59:40;;;;;;;0.35;0.35;;;;;;;3.28;93.42;96211.78;5003372;28;20054;-58
2023/03/08 02:02:07;;;;;;;0.30;0.30;;;;;;;3.10;94.05;96213.16;4988499;28;20124;-58
2023/03/08 02:04:35;;;;;;;0.30;0.30;;;;;;;3.00;95.11;96208.16;4988104;28;20082;-58
2023/03/08 02:07:01;;;;;;;0.40;0.40;;;;;;;3.14;94.70;96219.56;4989109;28;20124;-57
2023/03/08 02:09:28;;;;;;;0.35;0.35;;;;;;;3.22;92.22;96221.38;4988274;28;20058;-58
2023/03/08 02:11:59;;;;;;;0.30;0.30;;;;;;;3.18;92.01;96216.94;4988623;28;20468;-58
2023/03/08 02:14:27;;;;;;;0.40;0.40;;;;;;;3.18;93.30;96214.97;4992703;28;20706;-57
2023/03/08 02:16:54;;;;;;;0.40;0.40;;;;;;;3.22;92.70;96215.91;5007957;28;20099;-59
2023/03/08 02:19:33;;;;;;;0.38;0.38;;;;;;;3.15;92.13;96193.78;4994422;28;20108;-60
2023/03/08 02:22:10;;;;;;;0.40;0.40;;;;;;;3.21;91.13;96208.03;5007341;28;20053;-58
2023/03/08 02:24:37;;;;;;;0.40;0.40;;;;;;;3.10;91.44;96189.34;5007671;28;20049;-58
2023/03/08 02:27:08;;;;;;;0.40;0.40;;;;;;;3.21;91.25;96241.66;5008150;28;20152;-57
2023/03/08 02:29:35;;;;;;;0.40;0.40;;;;;;;2.68;91.77;96127.84;5007305;28;20116;-58
2023/03/08 02:32:01;;;;;;;0.40;0.40;;;;;;;3.26;92.26;96211.31;5022561;28;20096;-57
2023/03/08 02:34:28;;;;;;;0.40;0.40;;;;;;;3.33;92.48;96210.75;5007371;28;20123;-57
2023/03/08 02:36:55;;;;;;;0.40;0.40;;;;;;;3.32;92.33;96223.63;5007249;28;20483;-58
2023/03/08 02:39:21;;;;;;;0.40;0.40;;;;;;;3.40;92.07;96222.72;5007391;28;20053;-57
2023/03/08 02:41:48;;;;;;;0.40;0.40;;;;;;;2.64;92.92;96101.53;5007810;28;20041;-57
2023/03/08 02:44:14;;;;;;;0.40;0.40;;;;;;;3.28;94.66;96220.00;5008230;28;20511;-57
2023/03/08 02:46:41;;;;;;;0.38;0.38;;;;;;;3.43;92.69;96216.53;5007206;28;20054;-58
2023/03/08 02:49:08;;;;;;;0.40;0.40;;;;;;;0.80;92.72;95818.25;5007625;28;20181;-57
2023/03/08 02:51:34;;;;;;;0.40;0.40;;;;;;;3.21;93.16;96219.75;5007009;28;20100;-58
2023/03/08 02:54:01;;;;;;;0.40;0.40;;;;;;;3.19;92.82;96211.13;5006856;28;20045;-59
2023/03/08 02:56:28;;;;;;;0.40;0.40;;;;;;;2.96;92.88;96207.25;5021955;28;20081;-58
2023/03/08 02:58:54;;;;;;;0.30;0.30;;;;;;;2.99;92.15;96206.56;5007366;28;20046;-58
2023/03/08 03:01:21;;;;;;;0.40;0.40;;;;;;;3.20;91.91;96218.19;5007051;28;20108;-58
2023/03/08 03:03:48;;;;;;;0.30;0.30;;;;;;;3.23;91.76;96225.69;5007044;28;20054;-57
2023/03/08 03:06:17;;;;;;;0.40;0.40;;;;;;;3.26;91.54;96222.28;5006744;28;20520;-57
2023/03/08 03:08:45;;;;;;;0.30;0.30;;;;;;;3.21;92.27;96241.66;5007072;28;20101;-57
2023/03/08 03:11:17;;;;;;;0.38;0.38;;;;;;;3.19;91.84;96226.72;5006431;28;20503;-57
2023/03/08 03:13:44;;;;;;;0.40;0.40;;;;;;;3.20;91.53;96233.78;5006701;28;20362;-58
2023/03/08 03:16:14;;;;;;;0.40;0.40;;;;;;;3.13;91.35;96237.09;5004695;28;20517;-57
2023/03/08 03:18:41;;;;;;;0.40;0.40;;;;;;;2.76;91.46;96194.47;5006874;28;20143;-58
2023/03/08 03:21:11;;;;;;;0.30;0.30;;;;;;;3.11;91.95;96248.38;5006535;28;20487;-58
2023/03/08 03:23:39;;;;;;;0.30;0.30;;;;;;;3.10;92.61;96240.50;5005433;28;20050;-57
2023/03/08 03:26:11;;;;;;;0.40;0.40;;;;;;;3.13;92.94;96234.34;5021459;28;20085;-58
2023/03/08 03:28:38;;;;;;;0.30;0.30;;;;;;;2.83;91.89;96191.97;5005455;28;20460;-59
2023/03/08 03:31:10;;;;;;;0.40;0.40;;;;;;;3.15;92.22;96243.03;5006381;28;20050;-57
2023/03/08 03:33:38;;;;;;;0.40;0.40;;;;;;;3.13;92.80;96245.31;5006551;28;20513;-58
2023/03/08 03:36:06;;;;;;;0.40;0.40;;;;;;;3.11;93.31;96247.59;5006163;28;20119;-58
2023/03/08 03:38:33;;;;;;;0.38;0.38;;;;;;;3.16;91.91;96250.13;5006806;28;20057;-58
2023/03/08 03:41:21;;;;;;;0.30;0.30;;;;;;;3.07;92.05;96246.66;5021393;28;20410;-58
2023/03/08 03:43:48;;;;;;;0.38;0.38;;;;;;;2.94;92.60;96247.81;5021396;28;20078;-57
2023/03/08 03:46:18;;;;;;;0.30;0.30;;;;;;;2.88;93.72;96265.56;5005973;28;20104;-57
2023/03/08 03:48:45;;;;;;;0.40;0.40;;;;;;;2.91;94.17;96262.16;5006671;28;20504;-58
2023/03/08 03:51:14;;;;;;;0.40;0.40;;;;;;;2.87;93.30;96261.25;5006048;28;20133;-59
2023/03/08 03:53:41;;;;;;;0.40;0.40;;;;;;;3.01;92.79;96269.94;5006471;28;20088;-58
2023/03/08 03:56:14;;;;;;;0.40;0.40;;;;;;;3.02;92.74;96271.50;5006074;28;20068;-57
2023/03/08 03:58:41;;;;;;;0.40;0.40;;;;;;;2.94;92.88;96272.44;5006164;28;20073;-58
2023/03/08 04:01:25;;;;;;;0.30;0.30;;;;;;;2.80;93.14;96285.63;5021035;28;20189;-58
2023/03/08 04:03:53;;;;;;;0.40;0.40;;;;;;;2.68;93.51;96261.81;5006406;28;20137;-57
2023/03/08 04:06:31;;;;;;;0.40;0.40;;;;;;;2.79;94.10;96300.44;5004899;28;20492;-58
2023/03/08 04:09:01;;;;;;;0.40;0.40;;;;;;;2.80;93.70;96285.63;5006231;28;20081;-58
2023/03/08 04:11:33;;;;;;;0.40;0.40;;;;;;;2.75;93.17;96286.63;5005484;28;20053;-57
2023/03/08 04:13:59;;;;;;;0.40;0.40;;;;;;;2.80;93.01;96280.94;5006075;28;20167;-57
2023/03/08 04:16:29;;;;;;;0.40;0.40;;;;;;;2.83;93.12;96279.47;5005702;28;20050;-57
2023/03/08 04:18:58;;;;;;;0.30;0.30;;;;;;;2.79;93.59;96292.22;5006051;28;20507;-58
2023/03/08 04:21:25;;;;;;;0.40;0.40;;;;;;;2.68;94.37;96267.28;5004033;28;20108;-58
2023/03/08 04:23:52;;;;;;;0.40;0.40;;;;;;;2.29;94.31;96202.25;5005338;28;20054;-58
2023/03/08 04:26:20;;;;;;;0.35;0.35;;;;;;;2.84;92.91;96281.88;5005323;28;20131;-60
2023/03/08 04:28:47;;;;;;;0.40;0.40;;;;;;;2.82;92.38;96288.81;5005379;28;20054;-57
2023/03/08 04:31:15;;;;;;;0.30;0.30;;;;;;;2.71;92.83;96295.84;5005190;28;20050;-59
2023/03/08 04:33:43;;;;;;;0.30;0.30;;;;;;;2.41;93.22;96289.75;5005339;28;20493;-57
2023/03/08 04:36:09;;;;;;;0.40;0.40;;;;;;;2.43;93.84;96249.22;5005049;28;20058;-58
2023/03/08 04:38:36;;;;;;;0.40;0.40;;;;;;;2.62;94.35;96306.91;5020151;28;20136;-59
2023/03/08 04:41:06;;;;;;;0.30;0.30;;;;;;;2.62;94.60;96289.69;5005357;28;20068;-58
2023/03/08 04:43:33;;;;;;;0.40;0.40;;;;;;;2.64;94.74;96292.88;5020600;28;20045;-58
2023/03/08 04:46:01;;;;;;;0.30;0.30;;;;;;;2.72;94.59;96294.69;5003572;28;20049;-58
2023/03/08 04:48:28;;;;;;;0.40;0.40;;;;;;;2.18;94.52;96197.56;5005109;28;20436;-58
2023/03/08 04:50:59;;;;;;;0.40;0.40;;;;;;;2.79;94.34;96294.97;4998930;28;20049;-58
2023/03/08 04:53:27;;;;;;;0.40;0.40;;;;;;;2.74;93.69;96262.38;5005247;28;20477;-59
2023/03/08 04:55:55;;;;;;;0.30;0.30;;;;;;;2.93;93.94;96285.31;5015350;28;20065;-58
2023/03/08 04:58:22;;;;;;;0.40;0.40;;;;;;;2.38;93.73;96193.97;5024515;28;20150;-56
2023/03/08 05:00:48;;;;;;;0.50;0.50;;;;;;;2.90;92.76;96268.78;4999691;28;20057;-57
2023/03/08 05:03:15;;;;;;;0.40;0.40;;;;;;;3.05;92.97;96290.00;4984872;28;20076;-56
2023/03/08 05:05:47;;;;;;;0.40;0.40;;;;;;;3.05;93.21;96288.03;4985214;28;20106;-56
2023/03/08 05:08:13;;;;;;;0.40;0.40;;;;;;;3.01;93.01;96286.34;4985071;28;20133;-58
2023/03/08 05:10:47;;;;;;;0.32;0.32;;;;;;;3.07;92.19;96279.50;4984949;28;20050;-57
2023/03/08 05:13:13;;;;;;;0.40;0.40;;;;;;;3.02;92.55;96287.91;4984916;28;20072;-57
2023/03/08 05:15:41;;;;;;;0.40;0.40;;;;;;;2.61;93.78;96222.47;5009753;28;20108;-57
2023/03/08 05:18:07;;;;;;;0.30;0.30;;;;;;;3.15;94.74;96281.34;5022225;28;20115;-58
2023/03/08 05:20:34;;;;;;;0.40;0.40;;;;;;;3.18;93.84;96269.69;5023998;28;20543;-57
2023/03/08 05:23:00;;;;;;;0.40;0.40;;;;;;;3.41;93.06;96289.19;5024099;28;20077;-58
2023/03/08 05:25:27;;;;;;;0.40;0.40;;;;;;;3.48;92.33;96284.75;5023859;28;20045;-57
2023/03/08 05:27:54;;;;;;;0.40;0.40;;;;;;;3.09;91.59;96211.56;5023211;28;20525;-56
2023/03/08 05:30:20;;;;;;;0.40;0.40;;;;;;;3.71;91.90;96288.63;5023695;28;20080;-56
2023/03/08 05:32:47;;;;;;;0.40;0.40;;;;;;;3.42;91.28;96236.03;5023944;28;20065;-56
2023/03/08 05:35:14;;;;;;;0.40;0.40;;;;;;;3.46;91.82;96221.34;5028451;28;20062;-58
2023/03/08 05:37:40;;;;;;;0.40;0.40;;;;;;;4.07;90.26;96291.28;4984408;28;20062;-58
2023/03/08 05:40:08;;;;;;;0.40;0.40;;;;;;;4.25;89.78;96300.78;4984416;28;20047;-57
2023/03/08 05:42:35;;;;;;;0.50;0.50;;;;;;;4.07;89.59;96268.53;4984494;28;20545;-57
2023/03/08 05:45:02;;;;;;;0.40;0.40;;;;;;;4.41;89.39;96295.38;4984148;28;20133;-57
2023/03/08 05:47:29;;;;;;;0.40;0.40;;;;;;;4.58;89.31;96295.84;4958357;28;20055;-57
2023/03/08 05:49:55;;;;;;;0.40;0.40;;;;;;;4.64;89.03;96283.50;4965230;28;20061;-59
2023/03/08 05:52:22;;;;;;;0.40;0.40;;;;;;;4.94;89.15;96296.81;4964708;28;20170;-58
2023/03/08 05:54:49;;;;;;;0.43;0.43;;;;;;;5.11;88.85;96293.72;4965400;28;20612;-58
2023/03/08 05:57:15;;;;;;;0.50;0.50;;;;;;;5.20;88.23;96277.91;4979689;28;20054;-56
2023/03/08 05:59:42;;;;;;;0.50;0.50;;;;;;;5.18;86.46;96252.75;4964815;28;20093;-57
2023/03/08 06:02:09;;;;;;;0.50;0.50;;;;;;;5.52;85.87;96296.72;4965623;28;20308;-58
2023/03/08 06:04:35;;;;;;;0.40;0.40;;;;;;;5.60;84.50;96286.69;4965056;28;20062;-58
2023/03/08 06:07:02;;;;;;;0.55;0.55;;;;;;;5.44;84.25;96240.03;4979872;28;20608;-57
2023/03/08 06:09:29;;;;;;;0.50;0.50;;;;;;;5.93;81.77;96287.09;4964952;28;20563;-59
2023/03/08 06:11:55;;;;;;;0.50;0.50;;;;;;;6.16;81.55;96304.53;4965273;28;20616;-57
2023/03/08 06:14:22;;;;;;;0.50;0.50;;;;;;;6.21;81.75;96307.00;4964677;28;20178;-57
2023/03/08 06:16:49;;;;;;;0.55;0.55;;;;;;;6.43;81.12;96303.53;4984437;28;20581;-59
2023/03/08 06:19:15;;;;;;;0.50;0.50;;;;;;;6.58;80.58;96308.16;4982813;28;20058;-58
2023/03/08 06:21:43;;;;;;;0.60;0.60;;;;;;;6.81;78.75;96310.97;4984547;28;20301;-59
2023/03/08 06:24:09;;;;;;;0.60;0.60;;;;;;;7.05;77.96;96319.69;4983927;28;20117;-58
2023/03/08 06:26:36;;;;;;;0.60;0.60;;;;;;;7.20;77.21;96315.25;4984520;28;20070;-57
2023/03/08 06:29:03;;;;;;;0.60;0.60;;;;;;;7.03;76.59;96288.19;4982714;28;20567;-57
2023/03/08 06:31:29;;;;;;;0.60;0.60;;;;;;;7.38;75.85;96297.09;4986642;28;20097;-59
2023/03/08 06:33:56;;;;;;;0.52;0.52;;;;;;;7.76;75.51;96320.94;5001985;28;20050;-56
2023/03/08 06:36:22;;;;;;;0.60;0.60;;;;;;;7.38;74.06;96245.53;4986263;28;20050;-58
2023/03/08 06:38:49;;;;;;;0.70;0.70;;;;;;;7.80;73.23;96300.50;4987295;28;20058;-61
2023/03/08 06:41:18;;;;;;;0.70;0.70;;;;;;;8.16;73.21;96329.41;4983533;28;20052;-60
2023/03/08 06:43:45;;;;;;;0.73;0.73;;;;;;;7.81;73.37;96279.28;4994733;28;20425;-59
2023/03/08 06:46:15;;;;;;;0.60;0.60;;;;;;;8.29;73.12;96334.38;4987175;28;20035;-62
2023/03/08 06:48:43;;;;;;;0.60;0.60;;;;;;;8.43;72.81;96350.31;4985303;28;20153;-58
2023/03/08 06:51:10;;;;;;;0.70;0.70;;;;;;;8.69;72.42;96342.78;4987427;28;20050;-59
2023/03/08 06:53:37;;;;;;;0.70;0.70;;;;;;;8.89;71.98;96340.69;4985306;28;20082;-60
2023/03/08 06:56:05;;;;;;;0.70;0.70;;;;;;;9.28;71.84;96344.66;4986868;28;20493;-61
2023/03/08 06:58:33;;;;;;;0.80;0.80;;;;;;;9.45;70.89;96308.16;4985154;28;20151;-60
2023/03/08 07:01:03;;;;;;;0.80;0.80;;;;;;;9.92;69.82;96316.44;4986377;28;20050;-59
2023/03/08 07:03:30;;;;;;;0.80;0.80;;;;;;;10.40;68.44;96337.34;4982562;28;20058;-59
2023/03/08 07:06:03;;;;;;;0.80;0.80;;;;;;;10.57;67.64;96347.72;4998862;28;20054;-61
2023/03/08 07:08:30;;;;;;;0.90;0.90;;;;;;;10.51;66.70;96293.91;4986512;28;20130;-59
2023/03/08 07:10:57;;;;;;;0.90;0.90;;;;;;;10.78;66.44;96299.19;4984345;28;20051;-60
2023/03/08 07:13:24;;;;;;;1.00;1.00;;;;;;;11.31;66.46;96341.72;4985392;28;20156;-57
2023/03/08 07:15:51;;;;;;;1.00;1.00;;;;;;;11.22;66.80;96319.13;4983724;28;20046;-62
2023/03/08 07:18:19;;;;;;;1.00;1.00;;;;;;;11.51;66.25;96335.44;4985045;28;20050;-59
2023/03/08 07:20:56;;;;;;;0.90;0.90;;;;;;;11.11;64.63;96262.88;4985686;28;20084;-60
2023/03/08 07:23:23;;;;;;;1.00;1.00;;;;;;;11.65;65.18;96320.84;4983987;28;20828;-62
2023/03/08 07:25:49;;;;;;;0.90;0.90;;;;;;;11.61;64.54;96306.13;4986210;28;20581;-57
2023/03/08 07:28:16;;;;;;;1.00;1.00;;;;;;;11.29;63.45;96233.19;4985286;28;20050;-57
2023/03/08 07:30:47;;;;;;;1.00;1.00;;;;;;;12.06;62.68;96341.47;4978483;28;20056;-60
2023/03/08 07:33:15;;;;;;;1.00;1.00;;;;;;;11.82;60.82;96348.56;4981188;28;20077;-60
2023/03/08 07:35:43;;;;;;;0.90;0.90;;;;;;;11.83;61.43;96346.59;4985716;28;20046;-63
2023/03/08 07:38:13;;;;;;;1.00;1.00;;;;;;;11.49;60.40;96273.25;4985793;28;20058;-60
2023/03/08 07:40:40;;;;;;;1.10;1.10;;;;;;;11.88;60.45;96333.13;4985847;28;20148;-62
2023/03/08 07:43:06;;;;;;;0.90;0.90;;;;;;;11.89;61.25;96311.72;4985974;28;20054;-58
2023/03/08 07:45:33;;;;;;;1.00;1.00;;;;;;;12.12;61.73;96337.09;4985810;28;20054;-59
2023/03/08 07:48:00;;;;;;;1.02;1.02;;;;;;;12.42;59.73;96340.25;4983653;28;20275;-60
2023/03/08 07:50:26;;;;;;;0.93;0.93;;;;;;;11.55;59.75;96203.13;4985680;28;20058;-60
2023/03/08 07:52:53;;;;;;;1.10;1.10;;;;;;;12.55;59.66;96326.72;4984915;28;20050;-58
2023/03/08 07:55:20;;;;;;;1.10;1.10;;;;;;;12.77;58.94;96351.25;4984112;28;20053;-58
2023/03/08 07:57:47;;;;;;;1.20;1.20;;;;;;;12.95;58.54;96352.00;4985911;28;20098;-63
2023/03/08 08:00:14;;;;;;;1.10;1.10;;;;;;;12.52;56.59;96266.41;4984600;28;20078;-61
2023/03/08 08:02:41;;;;;;;1.15;1.15;;;;;;;12.87;56.60;96339.31;4985170;28;20084;-59
2023/03/08 08:05:08;;;;;;;1.20;1.20;;;;;;;13.21;56.67;96337.66;4999332;28;20600;-58
2023/03/08 08:07:34;;;;;;;1.08;1.08;;;;;;;13.14;55.82;96301.53;4985369;28;20105;-59
2023/03/08 08:10:01;;;;;;;1.20;1.20;;;;;;;13.44;54.82;96335.13;4980940;28;20054;-58
2023/03/08 08:12:28;;;;;;;1.13;1.13;;;;;;;12.30;55.34;96198.25;4983664;28;20137;-59
2023/03/08 08:14:54;;;;;;;1.00;1.00;;;;;;;13.05;54.89;96272.56;4985406;28;20081;-60
2023/03/08 08:17:21;;;;;;;1.20;1.20;;;;;;;13.25;53.90;96288.34;4985005;28;20150;-59
2023/03/08 08:19:48;;;;;;;1.20;1.20;;;;;;;12.96;53.63;96234.06;4984996;28;20058;-60
2023/03/08 08:22:15;;;;;;;1.20;1.20;;;;;;;13.58;53.35;96273.84;4982991;28;20046;-59
2023/03/08 08:24:42;;;;;;;1.20;1.20;;;;;;;14.00;52.92;96310.91;4984762;28;20085;-58
2023/03/08 08:27:08;;;;;;;1.30;1.30;;;;;;;14.29;52.42;96295.56;4983994;28;20128;-58
2023/03/08 08:29:36;;;;;;;1.30;1.30;;;;;;;14.62;51.12;96331.06;4985978;28;20105;-59
2023/03/08 08:32:03;;;;;;;1.30;1.30;;;;;;;13.47;50.47;96192.44;4985455;28;20054;-61
2023/03/08 08:34:30;;;;;;;1.30;1.30;;;;;;;14.10;50.46;96315.59;4985316;28;20050;-61
2023/03/08 08:36:57;;;;;;;1.23;1.23;;;;;;;14.22;50.44;96323.44;4983512;28;20145;-60
2023/03/08 08:39:24;;;;;;;1.40;1.40;;;;;;;14.63;49.91;96321.47;4984903;28;20532;-61
2023/03/08 08:41:51;;;;;;;1.48;1.48;;;;;;;14.67;49.41;96327.78;4984620;28;20062;-57
2023/03/08 08:44:18;;;;;;;1.33;1.33;;;;;;;13.76;49.42;96217.22;4984422;28;20141;-58
2023/03/08 08:46:44;;;;;;;1.40;1.40;;;;;;;14.38;49.80;96277.16;4984344;28;20042;-60
2023/03/08 08:49:11;;;;;;;1.45;1.45;;;;;;;15.04;49.83;96319.41;4983914;28;20513;-59
2023/03/08 08:51:38;;;;;;;1.30;1.30;;;;;;;15.25;49.26;96319.16;4983029;28;20051;-60
2023/03/08 08:54:04;;;;;;;1.40;1.40;;;;;;;15.39;48.35;96316.22;4984346;28;20062;-58
2023/03/08 08:56:31;;;;;;;1.42;1.42;;;;;;;15.68;48.15;96320.19;4984291;28;20054;-59
2023/03/08 08:59:02;;;;;;;1.38;1.38;;;;;;;15.87;47.19;96315.94;4984648;28;20568;-58
2023/03/08 09:01:31;;;;;;;1.50;1.50;;;;;;;15.87;47.16;96305.53;4984420;28;20105;-61
2023/03/08 09:03:58;;;;;;;1.45;1.45;;;;;;;15.74;46.28;96262.66;4984247;28;20074;-59
2023/03/08 09:06:26;;;;;;;1.50;1.50;;;;;;;16.09;46.95;96278.84;4981744;28;20144;-59
2023/03/08 09:08:56;;;;;;;1.70;1.70;;;;;;;16.37;46.38;96299.94;4983625;28;20415;-61
2023/03/08 09:11:24;;;;;;;1.55;1.55;;;;;;;14.42;44.92;95953.88;4983397;28;20410;-59
2023/03/08 09:13:51;;;;;;;1.58;1.58;;;;;;;16.38;40.65;96268.75;4983681;28;20062;-59
2023/03/08 09:16:20;;;;;;;1.67;1.67;;;;;;;16.36;40.36;96287.94;4983126;28;20057;-58
2023/03/08 09:18:47;;;;;;;1.65;1.65;;;;;;;16.28;40.52;96289.28;5009185;28;20145;-56
2023/03/08 09:21:14;;;;;;;1.63;1.63;;;;;;;15.91;40.51;96260.78;5010106;28;20532;-60
2023/03/08 09:23:41;;;;;;;1.60;1.60;;;;;;;16.22;40.49;96290.19;4987788;28;20065;-60
2023/03/08 09:26:08;;;;;;;1.50;1.50;;;;;;;16.18;40.17;96287.47;4999785;28;20164;-59
2023/03/08 09:28:35;;;;;;;1.50;1.50;;;;;;;16.26;40.69;96288.94;5003290;28;20053;-60
2023/03/08 09:31:13;;;;;;;1.60;1.60;;;;;;;16.00;40.93;96219.94;5002684;28;20420;-60
2023/03/08 09:33:50;;;;;;;1.50;1.50;;;;;;;16.49;40.38;96286.16;4998840;28;20112;-56
2023/03/08 09:36:18;;;;;;;1.58;1.58;;;;;;;16.57;40.30;96270.81;5003127;28;20053;-58
2023/03/08 09:38:50;;;;;;;1.50;1.50;;;;;;;16.71;40.43;96263.41;5006145;28;20070;-58
2023/03/08 09:41:49;;;;;;;1.55;1.55;;;;;;;16.93;39.57;96286.94;5003852;28;20081;-57
2023/03/08 09:44:44;;;;;;;1.70;1.70;;;;;;;17.00;40.01;96281.19;5003262;28;20080;-59
2023/03/08 09:47:41;;;;;;;1.70;1.70;;;;;;;16.97;38.84;96265.25;5004202;28;20057;-59
2023/03/08 09:50:11;;;;;;;1.70;1.70;;;;;;;16.88;38.95;96265.03;5006086;28;20064;-59
2023/03/08 10:19:18;;;;;;;1.70;1.70;;;;;;;17.31;38.42;96234.94;4996829;28;20188;-64
2023/03/08 10:21:47;;;;;;;1.90;1.90;;;;;;;17.73;37.44;96239.59;4996883;28;20156;-62
2023/03/08 10:24:42;;;;;;;1.73;1.73;;;;;;;17.96;36.60;96273.03;5007231;28;20409;-64
2023/03/08 10:27:18;;;;;;;2.00;2.00;;;;;;;17.80;37.05;96250.63;5001359;28;20049;-62
2023/03/08 10:29:54;;;;;;;1.70;1.70;;;;;;;17.84;36.48;96262.53;5005624;28;20435;-65
2023/03/08 10:32:22;;;;;;;1.65;1.65;;;;;;;17.54;36.73;96232.84;5005334;28;20128;-65
2023/03/08 10:34:49;;;;;;;1.65;1.65;;;;;;;17.20;36.56;96218.38;5006739;28;20057;-62
2023/03/08 10:37:18;;;;;;;1.75;1.75;;;;;;;17.27;36.74;96198.63;5006294;28;20057;-65
2023/03/08 10:39:53;;;;;;;2.00;2.00;;;;;;;17.44;37.01;96199.44;5006548;28;20050;-62
2023/03/08 10:42:24;;;;;;;1.90;1.90;;;;;;;16.71;36.65;96067.63;5006769;28;20492;-62
2023/03/08 10:45:09;;;;;;;1.67;1.67;;;;;;;18.11;35.96;96260.28;5005453;28;20427;-66
2023/03/08 10:47:38;;;;;;;1.85;1.85;;;;;;;17.86;34.79;96226.47;5021145;28;20060;-68
2023/03/08 10:50:18;;;;;;;1.70;1.70;;;;;;;17.90;34.97;96233.56;5021697;28;20057;-67
2023/03/08 10:52:47;;;;;;;1.85;1.85;;;;;;;17.52;34.58;96161.66;5021321;28;20092;-65
2023/03/08 10:55:19;;;;;;;1.83;1.83;;;;;;;18.23;34.18;96234.31;5021386;28;20057;-67
2023/03/08 10:57:55;;;;;;;1.70;1.70;;;;;;;18.16;33.64;96223.31;5006055;28;20057;-64
2023/03/08 11:00:38;;;;;;;1.85;1.85;;;;;;;18.04;32.90;96177.16;5006266;28;20419;-63
2023/03/08 11:03:20;;;;;;;1.77;1.77;;;;;;;18.30;32.81;96183.69;5006722;28;20061;-63
2023/03/08 11:06:13;;;;;;;1.90;1.90;;;;;;;18.32;31.58;96186.06;5004666;28;20053;-63
2023/03/08 11:08:52;;;;;;;1.70;1.70;;;;;;;18.53;31.31;96208.72;5006913;28;20399;-67
2023/03/08 11:11:19;;;;;;;1.90;1.90;;;;;;;17.94;30.76;96149.41;5004967;28;20063;-63
2023/03/08 11:13:48;;;;;;;1.63;1.63;;;;;;;18.37;30.39;96166.66;5006280;28;20065;-62
2023/03/08 11:16:25;;;;;;;1.90;1.90;;;;;;;18.74;31.63;96193.31;5005554;28;20057;-61
2023/03/08 11:18:54;;;;;;;1.70;1.70;;;;;;;18.91;30.23;96184.38;5041100;28;20439;-63
2023/03/08 11:22:01;;;;;;;2.10;2.10;;;;;;;19.17;31.00;96194.41;5019980;28;20100;-66
2023/03/08 11:24:33;;;;;;;2.00;2.00;;;;;;;19.07;30.47;96187.13;5005535;28;20129;-62
2023/03/08 11:27:16;;;;;;;2.10;2.10;;;;;;;19.05;30.51;96189.56;5005488;28;20069;-66
2023/03/08 11:29:55;;;;;;;1.80;1.80;;;;;;;19.26;31.07;96171.28;5005894;28;20050;-64
2023/03/08 11:32:52;;;;;;;1.90;1.90;;;;;;;19.29;31.27;96174.03;5005240;28;20069;-66
2023/03/08 11:35:45;;;;;;;2.10;2.10;;;;;;;19.16;31.52;96184.41;5020594;28;20101;-65
2023/03/08 11:38:25;;;;;;;2.13;2.13;;;;;;;19.26;31.66;96172.09;5005013;28;20521;-63
2023/03/08 11:41:01;;;;;;;1.90;1.90;;;;;;;19.29;31.09;96171.22;5005561;28;20064;-63
2023/03/08 11:43:35;;;;;;;2.10;2.10;;;;;;;19.38;31.40;96174.13;5005745;28;20132;-65
2023/03/08 11:46:47;;;;;;;1.80;1.80;;;;;;;19.54;30.88;96171.22;5005518;28;20041;-66
2023/03/08 11:49:21;;;;;;;2.05;2.05;;;;;;;19.67;30.98;96167.59;4982723;28;20085;-66
2023/03/08 11:51:57;;;;;;;2.10;2.10;;;;;;;19.71;31.49;96152.22;5020529;28;20065;-64
2023/03/08 11:54:42;;;;;;;2.10;2.10;;;;;;;19.73;31.04;96149.72;5005478;28;20061;-65
2023/03/08 11:57:12;;;;;;;2.10;2.10;;;;;;;19.34;30.46;96086.41;5004971;28;20092;-63
2023/03/08 11:59:51;;;;;;;2.00;2.00;;;;;;;17.58;29.96;95830.25;5004491;28;20064;-61
2023/03/08 12:02:28;;;;;;;2.10;2.10;;;;;;;19.18;30.33;96069.66;5003665;28;20064;-65
2023/03/08 12:05:00;;;;;;;2.00;2.00;;;;;;;19.45;30.56;96157.06;5019750;28;20050;-65
2023/03/08 12:07:51;;;;;;;2.15;2.15;;;;;;;19.36;30.47;96148.50;5004212;28;20056;-66
2023/03/08 12:10:43;;;;;;;2.10;2.10;;;;;;;19.31;30.56;96149.09;5004490;28;20061;-62
2023/03/08 12:13:31;;;;;;;2.20;2.20;;;;;;;19.07;30.27;96105.69;4993359;28;20065;-62
2023/03/08 12:16:15;;;;;;;2.05;2.05;;;;;;;19.40;30.60;96140.78;4986373;28;20062;-63
2023/03/08 12:19:00;;;;;;;1.77;1.77;;;;;;;19.29;30.51;96123.47;5029305;28;20057;-64